Sarajevo, Bosnia and Herzegovina
Current Conditions -  °F | °C
As of 1:00 AM on Monday 24 Nov 2014 (Local Time) from LQSA Reporting Station
Haze Haze  
Wind Chill: -1°   Ceiling: Unl
Heat Index: -1°   Visibility: 1.8mi
Dew Point: -2°   Wind: 1mph
Humidity: 93%   Direction: NA
Pressure: 30.36"   Gusts: NA
Location:  43.85°N, 18.38°E
Report Text: LQSA 232300Z VRB01KT 3000 BR NSC M01/M02 Q1028
Loading
Personal Weather Stations






























Interactive Weather Map New forecast layout! Learn more

10-Day Weather Forecast

Advertisements
Track Severe Weather on mobile